TimeCST,TemperatureF,Dew PointF,Humidity,Sea Level PressureIn,VisibilityMPH,Wind Direction,Wind SpeedMPH,Gust SpeedMPH,PrecipitationIn,Events,Conditions,WindDirDegrees,DateUTC
12:53 AM,7.0,1.0,77,30.28,10.0,South,6.9,-,0.00,,Overcast,170,2013-01-25 06:53:00
1:53 AM,8.1,1.9,76,30.24,4.0,South,8.1,-,0.00,Snow,Light Snow,190,2013-01-25 07:53:00
2:04 AM,8.6,3.2,79,30.11,2.5,South,6.9,-,0.00,Snow,Light Snow,180,2013-01-25 08:04:00
2:17 AM,8.6,3.2,79,30.11,1.8,South,6.9,-,0.00,Snow,Light Snow,170,2013-01-25 08:17:00
2:29 AM,8.6,3.2,79,30.10,2.5,South,8.1,-,0.00,Snow,Light Snow,190,2013-01-25 08:29:00
2:44 AM,8.6,3.2,79,30.08,2.5,South,8.1,-,0.00,Snow,Light Snow,170,2013-01-25 08:44:00
2:53 AM,9.0,3.9,80,30.19,2.0,South,6.9,-,0.00,Snow,Light Snow,170,2013-01-25 08:53:00
3:03 AM,8.6,3.2,79,30.07,1.8,South,8.1,-,0.00,Snow,Light Snow,180,2013-01-25 09:03:00
3:45 AM,10.4,5.0,79,30.03,2.0,South,10.4,20.7,0.01,Snow,Light Snow,170,2013-01-25 09:45:00
3:53 AM,10.0,5.0,80,30.14,2.0,South,8.1,16.1,0.01,Snow,Light Snow,170,2013-01-25 09:53:00
4:18 AM,10.4,5.0,79,30.00,1.2,Variable,6.9,17.3,0.00,Snow,Light Snow,0,2013-01-25 10:18:00
4:45 AM,10.4,5.0,79,29.99,2.0,South,9.2,-,0.00,Snow,Light Snow,180,2013-01-25 10:45:00
4:53 AM,10.0,5.0,80,30.10,2.0,South,6.9,-,0.00,Snow,Light Snow,180,2013-01-25 10:53:00
5:01 AM,10.4,5.0,79,29.98,1.8,South,9.2,-,0.00,Snow,Light Snow,180,2013-01-25 11:01:00
5:25 AM,10.4,5.0,79,29.96,2.5,South,6.9,-,0.00,Snow,Light Snow,180,2013-01-25 11:25:00
5:53 AM,10.9,5.0,77,30.06,2.5,South,9.2,-,0.00,Snow,Light Snow,180,2013-01-25 11:53:00
6:15 AM,10.4,6.8,85,29.93,3.0,South,12.7,17.3,0.00,Snow,Light Snow,180,2013-01-25 12:15:00
6:53 AM,10.9,6.1,81,30.02,2.5,South,8.1,-,0.00,Snow,Light Snow,190,2013-01-25 12:53:00
7:53 AM,10.9,6.1,81,30.00,1.0,South,5.8,-,0.00,Snow,Light Snow,190,2013-01-25 13:53:00
7:59 AM,10.4,6.8,85,29.89,0.8,South,5.8,-,0.00,Snow,Light Snow,180,2013-01-25 13:59:00
8:26 AM,10.4,6.8,85,29.88,1.0,South,8.1,-,0.01,Snow,Light Snow,190,2013-01-25 14:26:00
8:41 AM,10.4,6.8,85,29.88,2.5,South,5.8,-,0.01,Snow,Light Snow,180,2013-01-25 14:41:00
8:45 AM,12.2,6.8,79,29.88,3.0,South,4.6,-,0.01,Snow,Light Snow,180,2013-01-25 14:45:00
8:53 AM,12.0,7.0,80,29.98,3.0,SSW,9.2,-,0.01,Snow,Light Snow,200,2013-01-25 14:53:00
9:00 AM,12.2,6.8,79,29.87,2.5,South,6.9,-,0.00,Snow,Light Snow,190,2013-01-25 15:00:00
9:14 AM,12.2,6.8,79,29.87,2.0,SSW,4.6,-,0.00,Snow,Light Snow,210,2013-01-25 15:14:00
9:24 AM,12.2,6.8,79,29.87,1.8,SSW,5.8,-,0.00,Snow,Light Snow,210,2013-01-25 15:24:00
9:45 AM,12.2,6.8,79,29.87,1.2,SSW,6.9,-,0.00,Snow,Light Snow,210,2013-01-25 15:45:00
9:53 AM,12.9,8.1,81,29.97,0.8,SSW,6.9,-,0.00,Snow,Light Snow,200,2013-01-25 15:53:00
10:30 AM,12.2,8.6,85,29.86,1.2,SSW,4.6,-,0.00,Snow,Light Snow,200,2013-01-25 16:30:00
10:43 AM,12.2,6.8,79,29.85,1.8,SSW,8.1,-,0.00,Snow,Light Snow,200,2013-01-25 16:43:00
10:53 AM,12.9,8.1,81,29.95,1.8,SW,6.9,-,0.00,Snow,Light Snow,220,2013-01-25 16:53:00
11:11 AM,12.2,6.8,79,29.84,0.8,SW,8.1,-,0.00,Snow,Light Snow,220,2013-01-25 17:11:00
11:23 AM,12.2,8.6,85,29.84,1.8,SW,5.8,-,0.00,Snow,Light Snow,230,2013-01-25 17:23:00
11:31 AM,14.0,6.8,73,29.84,2.5,SW,5.8,-,0.01,Snow,Light Snow,230,2013-01-25 17:31:00
11:53 AM,14.0,7.0,74,29.94,2.5,SW,8.1,-,0.01,Snow,Light Snow,230,2013-01-25 17:53:00
12:39 PM,15.8,8.6,73,29.82,3.0,West,8.1,-,0.00,Snow,Light Snow,260,2013-01-25 18:39:00
12:53 PM,15.1,8.1,74,29.93,4.0,WSW,5.8,-,0.00,Snow,Light Snow,250,2013-01-25 18:53:00
1:41 PM,15.8,8.6,73,29.83,4.0,NW,5.8,-,0.00,Snow,Light Snow,310,2013-01-25 19:41:00
1:47 PM,15.8,8.6,73,29.83,2.0,West,6.9,-,0.00,Snow,Light Snow,280,2013-01-25 19:47:00
1:49 PM,15.8,8.6,73,29.83,1.8,West,5.8,-,0.00,Snow,Light Snow,280,2013-01-25 19:49:00
1:53 PM,16.0,7.0,68,29.94,2.0,West,5.8,-,0.00,Snow,Light Snow,280,2013-01-25 19:53:00
2:06 PM,15.8,8.6,73,29.84,1.8,West,4.6,-,0.00,Snow,Light Snow,280,2013-01-25 20:06:00
2:09 PM,15.8,8.6,73,29.84,3.0,Variable,3.5,-,0.00,Snow,Light Snow,0,2013-01-25 20:09:00
2:13 PM,15.8,8.6,73,29.84,2.5,WNW,5.8,-,0.00,Snow,Light Snow,300,2013-01-25 20:13:00
2:21 PM,15.8,8.6,73,29.84,3.0,WNW,6.9,-,0.00,Snow,Light Snow,290,2013-01-25 20:21:00
2:43 PM,15.8,8.6,73,29.85,2.5,WNW,6.9,-,0.00,Snow,Light Snow,290,2013-01-25 20:43:00
2:50 PM,15.8,8.6,73,29.86,1.5,WNW,6.9,-,0.00,Snow,Light Snow,290,2013-01-25 20:50:00
2:53 PM,15.1,9.0,77,29.97,1.8,WNW,8.1,-,0.00,Snow,Light Snow,290,2013-01-25 20:53:00
3:01 PM,15.8,8.6,73,29.87,0.8,WNW,5.8,-,0.00,Snow,Light Snow,290,2013-01-25 21:01:00
3:07 PM,15.8,8.6,73,29.87,2.0,NW,6.9,-,0.00,Snow,Light Snow,310,2013-01-25 21:07:00
3:15 PM,15.8,6.8,68,29.88,8.0,NNW,6.9,-,0.00,,Overcast,330,2013-01-25 21:15:00
3:53 PM,15.1,6.1,68,30.01,10.0,NW,5.8,-,0.00,,Overcast,320,2013-01-25 21:53:00
4:53 PM,14.0,6.1,71,30.03,7.0,NW,8.1,-,0.00,,Overcast,310,2013-01-25 22:53:00
5:05 PM,14.0,6.8,73,29.94,2.0,NW,5.8,-,0.00,Snow,Light Snow,310,2013-01-25 23:05:00
5:14 PM,12.2,6.8,79,29.94,9.0,WNW,4.6,-,0.00,,Overcast,300,2013-01-25 23:14:00
5:53 PM,12.0,5.0,73,30.06,9.0,WNW,6.9,-,0.00,,Mostly Cloudy,300,2013-01-25 23:53:00
6:53 PM,7.0,1.9,80,30.08,10.0,West,4.6,-,N/A,,Clear,280,2013-01-26 00:53:00
7:53 PM,9.0,3.9,80,30.11,10.0,West,4.6,-,N/A,,Overcast,280,2013-01-26 01:53:00
8:53 PM,8.1,3.9,83,30.13,10.0,WNW,6.9,-,N/A,,Partly Cloudy,290,2013-01-26 02:53:00
9:53 PM,7.0,3.0,84,30.14,10.0,West,6.9,-,N/A,,Clear,280,2013-01-26 03:53:00
10:53 PM,5.0,1.9,87,30.17,10.0,WNW,6.9,-,N/A,,Clear,290,2013-01-26 04:53:00
11:53 PM,6.1,1.9,83,30.20,10.0,West,6.9,-,N/A,,Mostly Cloudy,280,2013-01-26 05:53:00